Time;durP1;ratioP1;P1;durP2;ratioP2;P2;SDS_P1;SDS_P2;PMS_P1;PMS_P2;Temp;Humidity;BMP_temperature;BMP_pressure;BME280_temperature;BME280_humidity;BME280_pressure;Samples;Min_cycle;Max_cycle;Signal;HPM_P1;HPM_P2
2023/11/12 00:00:50;;;;;;;;;;;;;;;5.16;65.27;99530.38;5089816;28;20005;-64
2023/11/12 00:03:16;;;;;;;;;;;;;;;5.15;65.26;99524.34;5088597;28;20502;-64
2023/11/12 00:05:42;;;;;;;;;;;;;;;5.10;64.79;99536.34;5086948;28;19926;-63
2023/11/12 00:08:07;;;;;;;;;;;;;;;5.00;65.03;99511.31;5088281;28;19927;-64
2023/11/12 00:10:34;;;;;;;;;;;;;;;5.06;65.76;99517.41;5088220;28;19919;-64
2023/11/12 00:13:00;;;;;;;;;;;;;;;5.09;65.46;99512.28;5086262;28;19919;-63
2023/11/12 00:15:26;;;;;;;;;;;;;;;5.01;65.28;99503.59;5090157;28;19926;-65
2023/11/12 00:17:51;;;;;;;;;;;;;;;5.02;65.61;99494.16;5087940;28;19930;-64
2023/11/12 00:20:17;;;;;;;;;;;;;;;5.10;64.63;99495.06;5123109;27;19927;-64
2023/11/12 00:22:43;;;;;;;;;;;;;;;5.18;66.12;99488.25;5087693;28;20070;-64
2023/11/12 00:25:13;;;;;;;;;;;;;;;5.21;65.19;99475.41;5087384;28;20436;-63
2023/11/12 00:27:39;;;;;;;;;;;;;;;5.21;65.52;99477.09;5090501;27;19969;-63
2023/11/12 00:30:05;;;;;;;;;;;;;;;5.13;64.83;99477.91;5071252;28;19924;-64
2023/11/12 00:32:32;;;;;;;;;;;;;;;4.99;64.70;99466.59;5090223;28;20504;-64
2023/11/12 00:34:58;;;;;;;;;;;;;;;5.06;65.40;99472.69;5075748;28;19966;-64
2023/11/12 00:37:24;;;;;;;;;;;;;;;4.99;65.39;99474.34;5092690;28;19963;-64
2023/11/12 00:39:50;;;;;;;;;;;;;;;4.89;65.78;99467.38;5093162;28;19920;-63
2023/11/12 00:42:15;;;;;;;;;;;;;;;4.88;65.98;99468.25;5091536;28;19923;-65
2023/11/12 00:44:41;;;;;;;;;;;;;;;4.81;65.57;99464.75;5094823;28;19927;-65
2023/11/12 00:47:07;;;;;;;;;;;;;;;4.85;66.13;99438.16;5091199;28;19964;-64
2023/11/12 00:49:33;;;;;;;;;;;;;;;4.87;66.28;99440.72;5093007;28;19980;-63
2023/11/12 00:51:58;;;;;;;;;;;;;;;4.88;66.87;99439.88;5093366;28;19926;-65
2023/11/12 00:54:24;;;;;;;;;;;;;;;4.93;67.02;99428.75;5080763;28;20320;-62
2023/11/12 00:56:50;;;;;;;;;;;;;;;4.95;66.66;99427.03;5092662;28;19962;-63
2023/11/12 00:59:16;;;;;;;;;;;;;;;4.98;67.14;99419.34;5093263;28;19920;-64
2023/11/12 01:01:43;;;;;;;;;;;;;;;5.00;67.26;99411.59;5093000;28;19920;-63
2023/11/12 01:04:11;;;;;;;;;;;;;;;5.02;67.20;99412.47;5091819;28;19967;-63
2023/11/12 01:06:37;;;;;;;;;;;;;;;5.00;67.12;99415.91;5092900;28;19931;-63
2023/11/12 01:09:02;;;;;;;;;;;;;;;5.13;67.75;99420.28;5091765;28;19920;-64
2023/11/12 01:11:28;;;;;;;;;;;;;;;5.12;67.28;99406.53;5092085;28;19926;-63
2023/11/12 01:13:54;;;;;;;;;;;;;;;4.98;67.13;99400.41;5090856;28;19920;-64
2023/11/12 01:16:20;;;;;;;;;;;;;;;4.99;66.94;99399.56;5108811;27;20301;-66
2023/11/12 01:18:46;;;;;;;;;;;;;;;4.96;67.80;99394.41;5091163;28;19920;-65
2023/11/12 01:21:11;;;;;;;;;;;;;;;4.91;67.73;99390.91;5091977;28;20027;-65
2023/11/12 01:23:37;;;;;;;;;;;;;;;4.85;68.05;99396.91;5108235;27;19919;-66
2023/11/12 01:26:03;;;;;;;;;;;;;;;4.83;68.27;99381.41;5093147;28;19973;-62
2023/11/12 01:28:34;;;;;;;;;;;;;;;4.90;67.74;99394.34;5074991;28;19920;-63
2023/11/12 01:31:00;;;;;;;;;;;;;;;4.88;68.34;99376.25;5058099;28;19937;-63
2023/11/12 01:33:27;;;;;;;;;;;;;;;5.03;69.23;99387.56;5073426;28;20023;-63
2023/11/12 01:35:54;;;;;;;;;;;;;;;4.91;68.77;99378.03;5090830;28;19920;-63
2023/11/12 01:38:20;;;;;;;;;;;;;;;5.01;68.52;99366.91;5089676;28;20389;-63
2023/11/12 01:40:47;;;;;;;;;;;;;;;4.92;68.11;99364.28;5125377;27;20382;-63
2023/11/12 01:43:16;;;;;;;;;;;;;;;4.86;68.86;99359.06;5091441;28;19982;-64
2023/11/12 01:45:43;;;;;;;;;;;;;;;4.94;69.29;99353.09;5090800;28;19920;-63
2023/11/12 01:48:11;;;;;;;;;;;;;;;4.86;68.44;99347.03;5092072;28;20293;-63
2023/11/12 01:50:38;;;;;;;;;;;;;;;4.78;68.36;99351.28;5090294;28;19919;-63
2023/11/12 01:53:04;;;;;;;;;;;;;;;4.73;69.04;99338.38;5090655;28;20861;-62
2023/11/12 01:55:30;;;;;;;;;;;;;;;4.71;69.86;99327.19;5066797;28;19999;-63
2023/11/12 01:57:58;;;;;;;;;;;;;;;4.64;69.48;99327.97;5073941;28;19920;-63
2023/11/12 02:00:24;;;;;;;;;;;;;;;4.64;69.53;99325.41;5091027;28;20337;-65
2023/11/12 02:02:51;;;;;;;;;;;;;;;4.55;69.77;99321.03;5057040;28;20404;-62
2023/11/12 02:05:17;;;;;;;;;;;;;;;4.58;71.16;99315.91;5092201;28;20337;-63
2023/11/12 02:07:43;;;;;;;;;;;;;;;4.59;70.34;99314.19;5091304;28;20421;-65
2023/11/12 02:10:11;;;;;;;;;;;;;;;4.64;70.48;99309.94;5071347;28;20043;-64
2023/11/12 02:12:38;;;;;;;;;;;;;;;4.63;70.51;99301.34;5088790;28;20079;-65
2023/11/12 02:15:06;;;;;;;;;;;;;;;4.68;70.28;99302.22;5090157;28;19939;-65
2023/11/12 02:17:32;;;;;;;;;;;;;;;4.66;70.70;99292.78;5073585;28;20023;-64
2023/11/12 02:20:02;;;;;;;;;;;;;;;4.69;70.91;99292.78;5090756;28;20023;-65
2023/11/12 02:22:37;;;;;;;;;;;;;;;4.68;70.52;99273.03;5079924;28;20010;-65
2023/11/12 02:25:04;;;;;;;;;;;;;;;4.66;70.56;99269.56;5090306;28;19928;-65
2023/11/12 02:27:30;;;;;;;;;;;;;;;4.60;70.53;99262.66;5089563;28;19935;-65
2023/11/12 02:29:56;;;;;;;;;;;;;;;4.58;70.33;99251.50;5123370;27;20305;-65
2023/11/12 02:32:22;;;;;;;;;;;;;;;4.60;71.73;99244.63;5072328;28;19927;-63
2023/11/12 02:34:48;;;;;;;;;;;;;;;4.58;71.00;99232.56;5090432;28;21394;-63
2023/11/12 02:37:14;;;;;;;;;;;;;;;4.58;71.27;99219.69;5090265;28;19924;-63
2023/11/12 02:39:42;;;;;;;;;;;;;;;4.53;71.36;99217.94;5087016;28;20006;-65
2023/11/12 02:42:11;;;;;;;;;;;;;;;4.47;70.81;99220.50;5105657;27;19924;-65
2023/11/12 02:44:38;;;;;;;;;;;;;;;4.47;71.55;99217.91;5072339;28;19931;-66
2023/11/12 02:47:04;;;;;;;;;;;;;;;4.50;71.83;99205.06;5089142;28;19928;-64
2023/11/12 02:49:33;;;;;;;;;;;;;;;4.43;71.68;99203.28;5087001;28;19931;-63
2023/11/12 02:51:59;;;;;;;;;;;;;;;4.37;71.78;99185.19;5088209;28;19920;-63
2023/11/12 02:54:25;;;;;;;;;;;;;;;4.38;72.12;99179.19;5090962;28;20454;-65
2023/11/12 02:56:50;;;;;;;;;;;;;;;4.40;72.47;99174.91;5088492;28;20956;-64
2023/11/12 02:59:16;;;;;;;;;;;;;;;4.37;72.12;99180.94;5090488;28;19959;-64
2023/11/12 03:01:43;;;;;;;;;;;;;;;4.35;72.23;99166.28;5055420;28;19964;-63
2023/11/12 03:04:09;;;;;;;;;;;;;;;4.30;72.81;99161.13;5088410;28;20615;-63
2023/11/12 03:06:35;;;;;;;;;;;;;;;4.32;71.99;99150.81;5089165;28;20042;-64
2023/11/12 03:09:00;;;;;;;;;;;;;;;4.35;71.95;99161.13;5072998;28;19955;-62
2023/11/12 03:11:27;;;;;;;;;;;;;;;4.34;72.24;99146.53;5055012;28;19920;-63
2023/11/12 03:13:53;;;;;;;;;;;;;;;4.34;71.91;99134.53;5088649;28;19934;-63
2023/11/12 03:16:20;;;;;;;;;;;;;;;4.38;72.83;99132.81;5090698;28;20370;-63
2023/11/12 03:18:48;;;;;;;;;;;;;;;4.35;72.55;99125.97;5088280;28;19924;-62
2023/11/12 03:21:14;;;;;;;;;;;;;;;4.43;72.71;99115.69;5089957;28;19979;-62
2023/11/12 03:23:40;;;;;;;;;;;;;;;4.52;72.24;99118.28;5124494;27;20374;-62
2023/11/12 03:26:06;;;;;;;;;;;;;;;4.59;72.86;99126.06;5072004;28;19924;-61
2023/11/12 03:28:32;;;;;;;;;;;;;;;4.59;72.60;99124.34;5105686;27;19931;-61
2023/11/12 03:30:57;;;;;;;;;;;;;;;4.58;71.93;99130.38;5088439;28;19919;-61
2023/11/12 03:33:23;;;;;;;;;;;;;;;4.61;73.62;99117.50;5072137;28;19945;-62
2023/11/12 03:35:50;;;;;;;;;;;;;;;4.60;72.28;99112.31;5088165;28;20402;-62
2023/11/12 03:38:15;;;;;;;;;;;;;;;4.62;73.08;99113.19;5082145;28;19974;-61
2023/11/12 03:40:41;;;;;;;;;;;;;;;4.70;72.50;99114.09;5094097;28;19963;-63
2023/11/12 03:43:07;;;;;;;;;;;;;;;4.78;73.09;99104.66;5122756;27;20313;-62
2023/11/12 03:45:32;;;;;;;;;;;;;;;4.72;73.07;99085.72;5078453;28;20026;-61
2023/11/12 03:47:58;;;;;;;;;;;;;;;4.63;71.83;99091.72;5088907;28;19932;-62
2023/11/12 03:50:24;;;;;;;;;;;;;;;4.57;72.62;99082.25;5092623;28;19926;-61
2023/11/12 03:52:51;;;;;;;;;;;;;;;4.62;72.68;99079.69;5094171;28;19965;-62
2023/11/12 03:55:17;;;;;;;;;;;;;;;4.59;72.50;99077.97;5092629;28;19919;-62
2023/11/12 03:57:43;;;;;;;;;;;;;;;4.57;72.59;99073.66;5091860;28;20019;-63
2023/11/12 04:00:09;;;;;;;;;;;;;;;4.51;71.87;99070.22;5094815;28;20323;-62
2023/11/12 04:02:39;;;;;;;;;;;;;;;4.38;71.96;99083.88;5090255;28;20044;-62
2023/11/12 04:05:06;;;;;;;;;;;;;;;4.36;72.68;99075.28;5079780;28;20052;-62
2023/11/12 04:07:31;;;;;;;;;;;;;;;4.31;72.10;99089.84;5093099;28;19928;-63
2023/11/12 04:09:57;;;;;;;;;;;;;;;4.31;72.46;99069.22;5094430;28;19965;-62
2023/11/12 04:12:24;;;;;;;;;;;;;;;4.35;72.98;99058.97;5095170;28;20010;-62
2023/11/12 04:14:50;;;;;;;;;;;;;;;4.22;72.96;99042.59;5098096;28;19997;-63
2023/11/12 04:17:17;;;;;;;;;;;;;;;4.17;72.70;99031.41;5085434;28;19942;-63
2023/11/12 04:19:44;;;;;;;;;;;;;;;4.14;73.18;99048.56;5110448;27;19927;-63
2023/11/12 04:22:09;;;;;;;;;;;;;;;4.15;72.89;99027.13;5097693;28;19919;-62
2023/11/12 04:24:35;;;;;;;;;;;;;;;4.14;73.46;99033.13;5096117;28;19955;-62
2023/11/12 04:27:01;;;;;;;;;;;;;;;4.19;73.70;99016.81;5093866;28;19923;-62
2023/11/12 04:29:26;;;;;;;;;;;;;;;4.21;73.32;99017.69;5109015;27;19920;-63
2023/11/12 04:31:52;;;;;;;;;;;;;;;4.37;74.27;99010.91;5098194;28;19927;-62
2023/11/12 04:34:18;;;;;;;;;;;;;;;4.33;73.02;99018.59;5094453;28;20313;-62
2023/11/12 04:36:44;;;;;;;;;;;;;;;4.32;73.30;99007.44;5095905;28;19926;-64
2023/11/12 04:39:10;;;;;;;;;;;;;;;4.39;73.94;99018.63;5096114;28;19931;-63
2023/11/12 04:41:36;;;;;;;;;;;;;;;4.37;72.94;99003.19;5125633;27;19924;-61
2023/11/12 04:44:01;;;;;;;;;;;;;;;4.36;73.03;98998.88;5095264;28;19927;-62
2023/11/12 04:46:27;;;;;;;;;;;;;;;4.37;73.03;98999.72;5128122;27;19924;-61
2023/11/12 04:48:53;;;;;;;;;;;;;;;4.40;73.41;98997.16;5077290;28;19952;-62
2023/11/12 04:51:19;;;;;;;;;;;;;;;4.44;74.18;98983.44;5096200;28;19955;-62
2023/11/12 04:53:45;;;;;;;;;;;;;;;4.56;73.56;98976.59;5096830;28;19930;-63
2023/11/12 04:56:11;;;;;;;;;;;;;;;4.58;73.10;98977.44;5098063;28;19989;-64
2023/11/12 04:58:38;;;;;;;;;;;;;;;4.64;72.68;98980.03;5094577;28;19958;-63
2023/11/12 05:01:03;;;;;;;;;;;;;;;4.56;72.63;98982.63;5076469;28;19955;-64
2023/11/12 05:03:33;;;;;;;;;;;;;;;4.50;73.20;98973.16;5095875;28;19975;-64
2023/11/12 05:05:59;;;;;;;;;;;;;;;4.49;73.06;98973.13;5091244;28;19924;-64
2023/11/12 05:08:25;;;;;;;;;;;;;;;4.47;72.96;98965.41;5095054;28;20336;-64
2023/11/12 05:10:50;;;;;;;;;;;;;;;4.50;72.50;98978.31;5079596;28;20266;-64
2023/11/12 05:13:16;;;;;;;;;;;;;;;4.49;73.42;98961.13;5093529;28;19926;-64
2023/11/12 05:15:42;;;;;;;;;;;;;;;4.48;72.76;98956.84;5095290;28;20017;-64
2023/11/12 05:18:08;;;;;;;;;;;;;;;4.51;73.09;98953.38;5090350;28;19924;-65
2023/11/12 05:20:33;;;;;;;;;;;;;;;4.53;72.33;98937.06;5092987;28;19962;-65
2023/11/12 05:23:00;;;;;;;;;;;;;;;4.51;73.55;98935.34;5097214;28;20598;-65
2023/11/12 05:25:26;;;;;;;;;;;;;;;4.47;72.81;98936.19;5094281;28;20061;-65
2023/11/12 05:27:52;;;;;;;;;;;;;;;4.31;72.50;98907.84;5090837;28;20086;-65
2023/11/12 05:30:18;;;;;;;;;;;;;;;4.60;74.10;98914.78;5092415;28;19978;-64
2023/11/12 05:32:43;;;;;;;;;;;;;;;4.60;72.63;98908.75;5096070;28;20404;-65
2023/11/12 05:35:09;;;;;;;;;;;;;;;4.60;72.51;98903.59;5094650;28;20297;-65
2023/11/12 05:37:35;;;;;;;;;;;;;;;4.69;72.94;98898.44;5075137;28;20042;-64
2023/11/12 05:40:00;;;;;;;;;;;;;;;4.78;73.23;98885.53;5095362;28;19976;-65
2023/11/12 05:42:26;;;;;;;;;;;;;;;4.76;72.41;98881.25;5096127;28;20065;-63
2023/11/12 05:44:52;;;;;;;;;;;;;;;4.84;73.44;98874.41;5077476;28;19924;-64
2023/11/12 05:47:20;;;;;;;;;;;;;;;4.88;73.03;98864.94;5094145;28;20276;-62
2023/11/12 05:49:46;;;;;;;;;;;;;;;4.84;72.65;98871.81;5095100;28;19919;-61
2023/11/12 05:52:12;;;;;;;;;;;;;;;4.82;72.81;98878.69;5095995;28;20064;-63
2023/11/12 05:54:38;;;;;;;;;;;;;;;4.77;72.32;98855.47;5094616;28;20519;-64
2023/11/12 05:57:04;;;;;;;;;;;;;;;4.74;71.69;98844.31;5094424;28;19923;-64
2023/11/12 05:59:29;;;;;;;;;;;;;;;4.77;72.65;98845.16;5094825;28;19920;-63
2023/11/12 06:01:55;;;;;;;;;;;;;;;4.76;72.02;98838.28;5095713;28;20483;-62
2023/11/12 06:04:21;;;;;;;;;;;;;;;4.70;72.35;98838.31;5094850;28;19983;-64
2023/11/12 06:06:47;;;;;;;;;;;;;;;4.77;72.70;98831.44;5093943;28;19924;-63
2023/11/12 06:09:12;;;;;;;;;;;;;;;4.77;72.02;98818.53;5093914;28;20647;-64
2023/11/12 06:11:38;;;;;;;;;;;;;;;4.75;71.63;98826.25;5079482;28;21193;-65
2023/11/12 06:14:04;;;;;;;;;;;;;;;4.76;71.31;98817.66;5097803;28;20334;-63
2023/11/12 06:16:30;;;;;;;;;;;;;;;4.81;72.79;98815.94;5093104;28;19926;-64
2023/11/12 06:18:55;;;;;;;;;;;;;;;4.79;72.05;98807.34;5072198;28;20806;-65
2023/11/12 06:21:21;;;;;;;;;;;;;;;4.83;71.73;98813.38;5095748;28;20022;-64
2023/11/12 06:23:47;;;;;;;;;;;;;;;4.76;72.03;98804.78;5075423;28;19920;-65
2023/11/12 06:26:13;;;;;;;;;;;;;;;4.73;71.22;98807.38;5094685;28;19967;-68
2023/11/12 06:28:39;;;;;;;;;;;;;;;4.74;71.46;98797.91;5088315;28;20386;-68
2023/11/12 06:31:05;;;;;;;;;;;;;;;4.68;71.21;98798.78;5090338;28;19973;-73
2023/11/12 06:33:30;;;;;;;;;;;;;;;4.72;71.53;98789.34;5091792;28;20057;-68
2023/11/12 06:35:56;;;;;;;;;;;;;;;4.72;71.46;98779.03;5091951;28;19924;-70
2023/11/12 06:38:23;;;;;;;;;;;;;;;4.66;70.69;98785.88;5092661;28;20022;-70
2023/11/12 06:40:48;;;;;;;;;;;;;;;4.63;71.20;98767.88;5076505;28;20499;-70
2023/11/12 06:43:14;;;;;;;;;;;;;;;4.57;71.96;98769.59;5093915;28;20014;-70
2023/11/12 06:45:40;;;;;;;;;;;;;;;4.51;71.15;98775.59;5095006;28;20401;-70
2023/11/12 06:48:06;;;;;;;;;;;;;;;4.40;71.02;98755.00;5074944;28;19928;-69
2023/11/12 06:50:31;;;;;;;;;;;;;;;4.40;71.78;98757.59;5076017;28;19920;-69
2023/11/12 06:52:57;;;;;;;;;;;;;;;4.36;71.66;98755.84;5095139;28;19919;-69
2023/11/12 06:55:23;;;;;;;;;;;;;;;4.31;71.51;98745.56;5091046;28;19920;-71
2023/11/12 06:57:49;;;;;;;;;;;;;;;4.29;72.04;98739.56;5092029;28;19972;-70
2023/11/12 07:00:16;;;;;;;;;;;;;;;4.17;71.64;98737.84;5091334;28;19965;-71
2023/11/12 07:02:42;;;;;;;;;;;;;;;4.11;72.60;98745.56;5123794;27;19945;-67
2023/11/12 07:05:08;;;;;;;;;;;;;;;4.07;72.37;98738.72;5096177;28;19924;-69
2023/11/12 07:07:33;;;;;;;;;;;;;;;4.02;72.33;98730.97;5093043;28;19951;-68
2023/11/12 07:10:01;;;;;;;;;;;;;;;4.08;73.38;98722.41;5109309;27;20540;-67
2023/11/12 07:12:28;;;;;;;;;;;;;;;4.06;72.69;98726.69;5093027;28;19931;-68
2023/11/12 07:14:53;;;;;;;;;;;;;;;4.05;73.61;98719.81;5093928;28;19923;-67
2023/11/12 07:17:19;;;;;;;;;;;;;;;4.07;72.81;98715.53;5090561;28;19920;-67
2023/11/12 07:19:45;;;;;;;;;;;;;;;4.06;73.29;98724.97;5094309;28;19927;-67
2023/11/12 07:22:11;;;;;;;;;;;;;;;4.11;73.86;98711.25;5075662;28;20304;-69
2023/11/12 07:24:37;;;;;;;;;;;;;;;3.94;72.95;98711.22;5093902;28;19919;-68
2023/11/12 07:27:03;;;;;;;;;;;;;;;3.79;73.63;98699.19;5091924;28;20305;-66
2023/11/12 07:29:29;;;;;;;;;;;;;;;3.69;74.02;98701.78;5079101;28;20019;-67
2023/11/12 07:31:54;;;;;;;;;;;;;;;3.56;73.37;98697.44;5090707;28;20363;-68
2023/11/12 07:34:22;;;;;;;;;;;;;;;3.49;74.56;98712.00;5092275;28;19955;-68
2023/11/12 07:36:48;;;;;;;;;;;;;;;3.45;75.22;98685.44;5092604;28;20358;-67
2023/11/12 07:39:14;;;;;;;;;;;;;;;3.47;75.62;98693.16;5094969;28;19923;-67
2023/11/12 07:41:39;;;;;;;;;;;;;;;3.49;75.89;98686.28;5076458;28;20212;-68
2023/11/12 07:44:05;;;;;;;;;;;;;;;3.44;75.99;98677.69;5075574;28;19920;-68
2023/11/12 07:46:31;;;;;;;;;;;;;;;3.44;76.82;98688.88;5092024;28;19920;-68
2023/11/12 07:48:58;;;;;;;;;;;;;;;3.38;76.77;98675.13;5092227;28;20430;-70
2023/11/12 07:51:23;;;;;;;;;;;;;;;3.34;76.92;98673.41;5090903;28;20382;-71
2023/11/12 07:53:50;;;;;;;;;;;;;;;3.31;77.37;98664.84;5106527;28;19933;-69
2023/11/12 07:56:16;;;;;;;;;;;;;;;3.26;77.39;98661.38;5123045;27;19966;-69
2023/11/12 07:58:42;;;;;;;;;;;;;;;3.25;78.15;98654.53;5084781;28;19975;-67
2023/11/12 08:01:09;;;;;;;;;;;;;;;3.26;77.74;98652.81;5088533;28;19923;-69
2023/11/12 08:03:35;;;;;;;;;;;;;;;3.21;77.99;98626.25;5089280;28;19978;-69
2023/11/12 08:06:01;;;;;;;;;;;;;;;3.20;78.39;98629.66;5090286;28;19920;-65
2023/11/12 08:08:27;;;;;;;;;;;;;;;3.22;78.63;98628.78;5089734;28;20308;-66
2023/11/12 08:10:53;;;;;;;;;;;;;;;3.23;78.82;98627.09;5070141;28;19924;-67
2023/11/12 08:13:22;;;;;;;;;;;;;;;3.26;78.71;98612.53;5085877;28;20539;-66
2023/11/12 08:15:48;;;;;;;;;;;;;;;3.22;78.75;98618.50;5090585;28;19928;-66
2023/11/12 08:18:14;;;;;;;;;;;;;;;3.15;79.02;98625.38;5089175;28;19931;-65
2023/11/12 08:20:40;;;;;;;;;;;;;;;3.14;79.54;98608.22;5089048;28;20289;-65
2023/11/12 08:23:06;;;;;;;;;;;;;;;3.15;79.35;98599.66;5091866;28;19919;-66
2023/11/12 08:25:32;;;;;;;;;;;;;;;3.14;79.91;98590.22;5072862;28;19927;-72
2023/11/12 08:27:57;;;;;;;;;;;;;;;3.13;79.80;98603.09;5090626;28;19924;-73
2023/11/12 08:30:23;;;;;;;;;;;;;;;3.16;80.02;98609.09;5073732;28;19945;-66
2023/11/12 08:32:49;;;;;;;;;;;;;;;3.13;80.22;98596.22;5087250;28;19920;-68
2023/11/12 08:35:15;;;;;;;;;;;;;;;3.08;80.17;98612.50;5102534;28;20471;-67
2023/11/12 08:37:41;;;;;;;;;;;;;;;3.08;80.46;98597.06;5099681;27;20021;-66
2023/11/12 08:40:07;;;;;;;;;;;;;;;3.10;80.97;98597.94;5090600;28;19924;-67
2023/11/12 08:42:33;;;;;;;;;;;;;;;3.10;80.91;98600.50;5073684;28;19983;-65
2023/11/12 08:44:59;;;;;;;;;;;;;;;3.08;81.26;98585.09;5086916;28;20396;-66
2023/11/12 08:47:24;;;;;;;;;;;;;;;3.14;80.93;98579.94;5089498;28;19969;-67
2023/11/12 08:49:50;;;;;;;;;;;;;;;3.19;81.17;98566.25;5090433;28;19927;-67
2023/11/12 08:52:17;;;;;;;;;;;;;;;3.23;81.33;98566.25;5072800;28;19974;-67
2023/11/12 08:54:44;;;;;;;;;;;;;;;3.24;81.61;98555.09;5124933;27;20555;-66
2023/11/12 08:57:09;;;;;;;;;;;;;;;3.26;81.68;98550.81;5108067;27;19924;-65
2023/11/12 08:59:36;;;;;;;;;;;;;;;3.34;81.48;98558.53;5092654;28;20441;-65
2023/11/12 09:02:20;;;;;;;;;;;;;;;3.30;81.59;98541.41;5094612;28;19970;-67
2023/11/12 09:11:13;;;;;;;;;;;;;;;3.25;81.40;98520.81;5096107;28;19924;-66
2023/11/12 09:17:19;;;;;;;;;;;;;;;3.27;81.64;98502.84;5122765;27;19924;-67
2023/11/12 09:20:22;;;;;;;;;;;;;;;3.40;82.04;98511.41;5094241;28;19926;-68
2023/11/12 09:22:50;;;;;;;;;;;;;;;3.35;82.52;98495.13;5112395;27;19939;-66
2023/11/12 09:25:54;;;;;;;;;;;;;;;3.31;82.53;98483.97;5095098;28;19927;-66
2023/11/12 09:28:38;;;;;;;;;;;;;;;3.30;82.01;98489.97;5122283;27;19971;-65
2023/11/12 09:31:13;;;;;;;;;;;;;;;3.38;82.35;98479.69;5113948;27;20019;-68
2023/11/12 09:36:49;;;;;;;;;;;;;;;3.39;82.28;98471.13;5094075;28;20013;-66
2023/11/12 09:39:16;;;;;;;;;;;;;;;3.37;82.49;98470.25;5092354;28;20366;-67
2023/11/12 09:42:01;;;;;;;;;;;;;;;3.39;82.40;98463.41;5093500;28;19920;-66
2023/11/12 09:47:53;;;;;;;;;;;;;;;3.42;82.48;98442.81;5093671;28;20629;-71
2023/11/12 09:50:59;;;;;;;;;;;;;;;3.41;82.49;98431.66;5090054;28;19926;-68
2023/11/12 09:56:28;;;;;;;;;;;;;;;3.55;82.99;98430.78;5096254;28;20374;-71
2023/11/12 10:05:04;;;;;;;;;;;;;;;3.51;82.50;98403.38;5094848;28;19928;-74
2023/11/12 10:10:33;;;;;;;;;;;;;;;3.72;83.78;98392.13;5093995;28;19924;-73
2023/11/12 10:13:00;;;;;;;;;;;;;;;3.73;83.54;98389.56;5094546;28;20014;-73
2023/11/12 10:15:26;;;;;;;;;;;;;;;3.66;83.19;98389.56;5093740;28;19931;-72
2023/11/12 10:18:29;;;;;;;;;;;;;;;3.74;83.45;98395.56;5092026;28;19920;-70
2023/11/12 10:21:32;;;;;;;;;;;;;;;3.73;83.38;98373.28;5092327;28;20295;-69
2023/11/12 10:24:05;;;;;;;;;;;;;;;3.86;83.95;98382.63;5098632;28;19996;-72
2023/11/12 10:26:38;;;;;;;;;;;;;;;3.79;82.99;98370.69;5063341;28;19999;-69
2023/11/12 10:29:43;;;;;;;;;;;;;;;3.77;83.23;98362.09;5096333;28;20018;-74
2023/11/12 10:35:24;;;;;;;;;;;;;;;3.83;83.40;98348.34;5076436;28;19924;-73
2023/11/12 10:47:25;;;;;;;;;;;;;;;3.96;83.79;98313.09;5091785;28;19924;-72
2023/11/12 10:49:54;;;;;;;;;;;;;;;4.02;83.78;98313.09;5093597;28;21439;-72
2023/11/12 10:55:42;;;;;;;;;;;;;;;3.96;83.55;98310.53;5091772;28;20494;-73
2023/11/12 10:58:12;;;;;;;;;;;;;;;3.99;83.36;98297.66;5101068;28;19920;-72
2023/11/12 11:01:01;;;;;;;;;;;;;;;4.02;83.99;98295.06;5075411;28;19924;-73
2023/11/12 11:04:06;;;;;;;;;;;;;;;4.12;83.89;98294.13;5123902;27;19932;-72
2023/11/12 11:06:50;;;;;;;;;;;;;;;4.19;83.12;98275.19;5093684;28;19924;-72
2023/11/12 11:25:35;;;;;;;;;;;;;;;4.29;83.69;98250.22;5091228;28;20051;-69
2023/11/12 11:28:21;;;;;;;;;;;;;;;4.22;83.68;98249.44;5074655;28;19930;-70
2023/11/12 11:31:10;;;;;;;;;;;;;;;4.24;82.87;98240.84;5057474;28;19937;-70
2023/11/12 11:33:55;;;;;;;;;;;;;;;4.28;83.75;98227.91;5073347;28;20598;-70
2023/11/12 11:36:28;;;;;;;;;;;;;;;4.31;83.85;98222.75;5074831;28;19924;-68
2023/11/12 11:42:35;;;;;;;;;;;;;;;4.37;83.81;98212.41;5088002;28;20292;-69
2023/11/12 11:45:05;;;;;;;;;;;;;;;4.39;84.05;98211.53;5070602;28;19919;-68
2023/11/12 11:47:31;;;;;;;;;;;;;;;4.35;83.21;98223.56;5120594;27;19928;-69
2023/11/12 11:50:16;;;;;;;;;;;;;;;4.35;83.26;98210.69;5075321;28;19926;-68
2023/11/12 11:53:19;;;;;;;;;;;;;;;4.37;83.78;98190.91;5106004;28;19955;-72
2023/11/12 11:56:04;;;;;;;;;;;;;;;4.39;84.14;98198.66;5122834;27;19920;-68
2023/11/12 11:58:40;;;;;;;;;;;;;;;4.40;83.48;98190.91;5123719;27;21342;-68
2023/11/12 12:01:27;;;;;;;;;;;;;;;4.41;84.29;98182.31;5071978;28;19972;-70
2023/11/12 12:07:05;;;;;;;;;;;;;;;4.43;83.40;98175.41;5089177;28;20038;-68
2023/11/12 12:09:50;;;;;;;;;;;;;;;4.42;84.13;98165.97;5090435;28;20390;-67
2023/11/12 12:12:36;;;;;;;;;;;;;;;4.46;83.89;98159.06;5075224;28;19924;-70
2023/11/12 12:17:56;;;;;;;;;;;;;;;4.58;84.69;98140.91;5089538;28;20161;-69
2023/11/12 12:20:45;;;;;;;;;;;;;;;4.58;83.43;98138.34;5091361;28;20343;-70
2023/11/12 12:23:30;;;;;;;;;;;;;;;4.57;84.44;98128.03;5089227;28;20412;-72
2023/11/12 12:26:15;;;;;;;;;;;;;;;4.65;84.63;98121.91;5122784;27;20380;-70
2023/11/12 12:28:59;;;;;;;;;;;;;;;4.70;83.92;98115.88;5090433;28;19924;-70
2023/11/12 12:32:04;;;;;;;;;;;;;;;4.73;84.64;98121.00;5078787;28;19920;-71
2023/11/12 12:35:06;;;;;;;;;;;;;;;4.75;84.50;98112.34;5093368;28;20050;-72
2023/11/12 12:37:33;;;;;;;;;;;;;;;4.72;84.03;98120.16;5088951;28;19920;-66
2023/11/12 12:40:15;;;;;;;;;;;;;;;4.76;84.31;98129.53;5072698;28;20030;-68
2023/11/12 12:43:00;;;;;;;;;;;;;;;4.82;84.24;98121.72;5049784;28;20385;-70
2023/11/12 12:45:28;;;;;;;;;;;;;;;4.89;84.81;98113.94;5056858;28;19920;-69
2023/11/12 12:47:59;;;;;;;;;;;;;;;4.92;84.67;98104.41;5105886;27;20372;-77
2023/11/12 12:50:25;;;;;;;;;;;;;;;4.98;84.55;98104.34;5073933;28;20046;-71
2023/11/12 13:02:09;;;;;;;;;;;;;;;4.98;84.40;98093.16;5107265;27;20325;-71
2023/11/12 13:04:53;;;;;;;;;;;;;;;5.01;84.57;98087.13;5110301;27;19924;-70
2023/11/12 13:07:19;;;;;;;;;;;;;;;5.09;85.24;98088.72;5071530;28;19939;-70
2023/11/12 13:09:45;;;;;;;;;;;;;;;5.13;84.72;98077.50;5090552;28;19926;-71
2023/11/12 13:15:24;;;;;;;;;;;;;;;5.10;84.55;98080.13;5108471;27;20410;-71
2023/11/12 13:17:51;;;;;;;;;;;;;;;5.18;84.86;98066.28;5091490;28;21654;-67
2023/11/12 13:20:40;;;;;;;;;;;;;;;5.32;85.37;98069.50;5091045;28;20061;-69
2023/11/12 13:23:24;;;;;;;;;;;;;;;5.22;84.58;98061.03;5092261;28;19920;-70
2023/11/12 13:31:56;;;;;;;;;;;;;;;5.22;84.54;98047.28;5087156;28;19943;-68
2023/11/12 13:34:23;;;;;;;;;;;;;;;5.26;84.47;98043.78;5087119;28;19920;-70
2023/11/12 13:36:50;;;;;;;;;;;;;;;5.35;85.05;98035.91;5088660;28;19920;-70
2023/11/12 13:39:19;;;;;;;;;;;;;;;5.49;85.29;98039.97;5064870;28;19960;-72
2023/11/12 13:42:06;;;;;;;;;;;;;;;5.52;84.38;98034.78;5090300;28;19920;-72
2023/11/12 13:44:34;;;;;;;;;;;;;;;5.56;84.55;98033.84;5088581;28;19935;-69
2023/11/12 13:47:20;;;;;;;;;;;;;;;5.53;84.63;98021.84;5093718;28;19935;-68
2023/11/12 13:49:46;;;;;;;;;;;;;;;5.53;84.50;98026.16;5088278;28;19920;-70
2023/11/12 13:52:15;;;;;;;;;;;;;;;5.54;84.33;98014.97;5085540;28;19966;-69
2023/11/12 13:57:43;;;;;;;;;;;;;;;5.50;84.16;98013.31;5090823;28;20007;-69
2023/11/12 14:02:54;;;;;;;;;;;;;;;5.61;85.03;97995.94;5107087;27;19924;-69
2023/11/12 14:05:26;;;;;;;;;;;;;;;5.64;84.94;98001.00;5089842;28;20666;-71
2023/11/12 14:08:11;;;;;;;;;;;;;;;5.69;84.52;97990.63;5089483;28;21825;-70
2023/11/12 14:10:56;;;;;;;;;;;;;;;5.66;85.01;97982.94;5093861;28;19924;-69
2023/11/12 14:20:29;;;;;;;;;;;;;;;5.79;84.96;97968.91;5091139;28;20274;-68
2023/11/12 14:22:55;;;;;;;;;;;;;;;5.85;85.15;97970.53;5088977;28;19928;-67
2023/11/12 14:25:40;;;;;;;;;;;;;;;5.90;84.78;97966.13;5074994;28;19987;-69
2023/11/12 14:31:12;;;;;;;;;;;;;;;6.01;84.97;97958.22;5090150;28;20454;-71
2023/11/12 14:33:57;;;;;;;;;;;;;;;5.74;85.02;97921.69;5079756;28;20403;-69
2023/11/12 14:39:45;;;;;;;;;;;;;;;6.00;84.99;97952.22;5073112;28;19927;-73
2023/11/12 14:45:14;;;;;;;;;;;;;;;6.14;85.42;97939.03;5079229;28;20378;-69
2023/11/12 14:47:59;;;;;;;;;;;;;;;6.22;85.10;97933.69;5093718;28;19988;-68
2023/11/12 14:50:28;;;;;;;;;;;;;;;6.24;84.96;97937.09;5095486;28;19934;-71
2023/11/12 14:52:57;;;;;;;;;;;;;;;6.25;85.16;97940.50;5077884;28;20262;-70
2023/11/12 14:55:42;;;;;;;;;;;;;;;6.25;85.35;97933.63;5073224;28;19927;-70
2023/11/12 14:58:26;;;;;;;;;;;;;;;6.23;84.74;97929.34;5060724;28;19938;-70
2023/11/12 15:03:36;;;;;;;;;;;;;;;6.29;84.78;97926.66;5079314;28;20455;-70